createdAt,value
2023-02-11T00:02:24.339Z,12.23
2023-02-11T00:07:26.837Z,12.23
2023-02-11T00:12:29.807Z,13.23
2023-02-11T00:17:32.980Z,18.42
2023-02-11T00:22:35.406Z,14.13
2023-02-11T00:27:38.353Z,14.05
2023-02-11T00:32:42.847Z,15.25
2023-02-11T00:37:45.267Z,15.73
2023-02-11T00:42:47.856Z,15.43
2023-02-11T00:47:50.289Z,17.42
2023-02-11T00:52:52.766Z,10.32
2023-02-11T00:57:55.233Z,15.80
2023-02-11T01:02:57.680Z,13.75
2023-02-11T01:08:00.295Z,7.38
2023-02-11T01:13:02.898Z,12.95
2023-02-11T01:18:06.595Z,12.80
2023-02-11T01:23:09.159Z,7.38
2023-02-11T01:28:21.631Z,13.70
2023-02-11T01:33:24.868Z,4.82
2023-02-11T01:38:27.315Z,10.68
2023-02-11T01:43:34.900Z,7.90
2023-02-11T01:48:42.077Z,7.75
2023-02-11T01:54:03.748Z,18.67
2023-02-11T01:59:13.588Z,13.95
2023-02-11T02:04:19.311Z,11.90
2023-02-11T02:09:29.137Z,14.60
2023-02-11T02:14:31.837Z,21.65
2023-02-11T02:19:37.187Z,17.52
2023-02-11T02:25:04.228Z,10.05
2023-02-11T02:30:40.403Z,14.23
2023-02-11T02:35:54.224Z,19.52
2023-02-11T02:41:18.068Z,11.18
2023-02-11T02:46:21.866Z,12.90
2023-02-11T02:51:54.602Z,11.77
2023-02-11T02:56:56.929Z,9.77
2023-02-11T03:02:11.062Z,10.23
2023-02-11T03:07:23.396Z,14.45
2023-02-11T03:12:28.458Z,10.25
2023-02-11T03:17:33.890Z,24.10
2023-02-11T03:22:43.121Z,7.43
2023-02-11T03:27:49.684Z,11.05
2023-02-11T03:32:57.798Z,10.35
2023-02-11T03:38:10.656Z,5.38
2023-02-11T03:43:17.444Z,8.85
2023-02-11T03:48:25.997Z,9.85
2023-02-11T03:53:28.400Z,8.63
2023-02-11T03:58:31.018Z,8.43
2023-02-11T04:03:33.479Z,12.98
2023-02-11T04:08:36.018Z,14.88
2023-02-11T04:13:38.365Z,10.18
2023-02-11T04:18:40.770Z,9.13
2023-02-11T04:23:43.254Z,7.20
2023-02-11T04:28:45.564Z,4.35
2023-02-11T04:33:47.999Z,10.90
2023-02-11T04:38:50.367Z,3.88
2023-02-11T04:43:55.334Z,5.38
2023-02-11T04:48:57.881Z,6.25
2023-02-11T04:54:00.301Z,4.78
2023-02-11T04:59:02.871Z,5.80
2023-02-11T05:04:05.592Z,7.30
2023-02-11T05:09:12.958Z,7.82
2023-02-11T05:14:15.479Z,9.30
2023-02-11T05:19:18.103Z,4.88
2023-02-11T05:24:21.300Z,9.10
2023-02-11T05:29:23.709Z,12.43
2023-02-11T05:34:26.330Z,7.05
2023-02-11T05:39:28.880Z,9.48
2023-02-11T05:44:31.324Z,18.35
2023-02-11T05:49:33.744Z,7.22
2023-02-11T05:54:36.198Z,8.38
2023-02-11T05:59:40.264Z,11.00
2023-02-11T06:04:42.905Z,7.38
2023-02-11T06:09:45.456Z,7.30
2023-02-11T06:14:47.802Z,8.82
2023-02-11T06:19:50.250Z,13.70
2023-02-11T06:25:01.225Z,11.15
2023-02-11T06:30:07.722Z,13.55
2023-02-11T06:35:12.049Z,5.88
2023-02-11T06:40:15.014Z,11.05
2023-02-11T06:45:17.622Z,12.45
2023-02-11T06:50:20.142Z,10.68
2023-02-11T06:55:22.566Z,10.25
2023-02-11T07:00:25.113Z,7.75
2023-02-11T07:05:27.609Z,10.60
2023-02-11T07:10:30.169Z,12.38
2023-02-11T07:15:32.949Z,8.85
2023-02-11T07:20:38.326Z,8.13
2023-02-11T07:25:40.746Z,8.65
2023-02-11T07:30:43.242Z,8.88
2023-02-11T07:35:45.986Z,7.40
2023-02-11T07:40:49.399Z,8.95
2023-02-11T07:45:51.993Z,8.40
2023-02-11T07:50:54.569Z,7.20
2023-02-11T07:55:56.961Z,11.02
2023-02-11T08:01:08.492Z,10.00
2023-02-11T08:06:14.456Z,9.63
2023-02-11T08:11:18.014Z,9.20
2023-02-11T08:16:28.186Z,8.25
2023-02-11T08:21:30.770Z,9.40
2023-02-11T08:26:37.441Z,10.20
2023-02-11T08:31:43.063Z,9.02
2023-02-11T08:36:47.262Z,10.05
2023-02-11T08:41:56.839Z,9.02
2023-02-11T08:46:59.538Z,8.25
2023-02-11T08:52:04.455Z,10.55
2023-02-11T08:57:06.984Z,9.40
2023-02-11T09:02:13.742Z,9.77
2023-02-11T09:07:18.735Z,8.63
2023-02-11T09:12:21.189Z,9.13
2023-02-11T09:17:23.696Z,8.88
2023-02-11T09:22:26.164Z,8.57
2023-02-11T09:27:28.642Z,9.50
2023-02-11T09:32:31.139Z,10.25
2023-02-11T09:37:36.288Z,9.68
2023-02-11T09:42:50.667Z,11.07
2023-02-11T09:48:16.547Z,11.15
2023-02-11T09:53:26.469Z,9.20
2023-02-11T09:58:32.707Z,9.90
2023-02-11T10:03:58.000Z,9.13
2023-02-11T10:09:09.464Z,8.77
2023-02-11T10:14:45.648Z,10.10
2023-02-11T10:20:07.132Z,10.43
2023-02-11T10:25:59.396Z,8.43
2023-02-11T10:31:16.112Z,9.90
2023-02-11T10:36:21.250Z,11.20
2023-02-11T10:41:35.442Z,10.05
2023-02-11T10:46:41.219Z,9.85
2023-02-11T10:51:43.749Z,9.00
2023-02-11T10:56:52.392Z,10.18
2023-02-11T11:02:00.850Z,10.38
2023-02-11T11:07:20.807Z,11.45
2023-02-11T11:12:53.180Z,6.97
2023-02-11T11:18:21.897Z,9.00
2023-02-11T11:23:26.190Z,9.55
2023-02-11T11:28:31.027Z,11.85
2023-02-11T11:33:36.008Z,9.93
2023-02-11T11:38:45.398Z,10.20
2023-02-11T11:43:58.808Z,9.35
2023-02-11T11:49:30.150Z,6.95
2023-02-11T11:54:34.781Z,9.77
2023-02-11T11:59:38.513Z,10.65
2023-02-11T12:05:11.267Z,9.82
2023-02-11T12:10:19.674Z,8.05
2023-02-11T12:16:04.303Z,9.48
2023-02-11T12:21:21.775Z,10.48
2023-02-11T12:26:29.420Z,9.30
2023-02-11T12:31:56.323Z,13.75
2023-02-11T12:37:09.600Z,7.70
2023-02-11T12:42:49.118Z,7.10
2023-02-11T12:48:13.184Z,9.38
2023-02-11T12:53:49.967Z,6.57
2023-02-11T12:58:56.287Z,11.57
2023-02-11T13:04:26.546Z,10.02
2023-02-11T13:09:53.033Z,9.98
2023-02-11T13:14:59.808Z,6.70
2023-02-11T13:20:15.650Z,10.23
2023-02-11T13:25:31.858Z,7.45
2023-02-11T13:30:41.299Z,8.10
2023-02-11T13:36:09.707Z,10.38
2023-02-11T13:41:25.918Z,6.70
2023-02-11T13:46:30.559Z,7.53
2023-02-11T13:51:42.732Z,11.30
2023-02-11T13:56:46.595Z,8.25
2023-02-11T14:02:09.078Z,10.65
2023-02-11T14:07:51.889Z,6.60
2023-02-11T14:13:16.939Z,7.28
2023-02-11T14:18:38.866Z,9.85
2023-02-11T14:23:42.436Z,8.88
2023-02-11T14:28:47.201Z,14.68
2023-02-11T14:34:15.416Z,13.25
2023-02-11T14:39:40.654Z,6.25
2023-02-11T14:44:43.157Z,13.10
2023-02-11T14:49:45.723Z,11.65
2023-02-11T14:54:51.470Z,9.48
2023-02-11T15:00:21.913Z,12.18
2023-02-11T15:05:30.008Z,12.07
2023-02-11T15:10:55.586Z,7.45
2023-02-11T15:16:06.979Z,9.95
2023-02-11T15:21:10.443Z,10.68
2023-02-11T15:26:22.673Z,12.13
2023-02-11T15:31:27.566Z,14.35
2023-02-11T15:36:34.599Z,9.90
2023-02-11T15:41:38.568Z,9.15
2023-02-11T15:46:41.499Z,10.52
2023-02-11T15:51:46.497Z,8.02
2023-02-11T15:56:51.809Z,11.43
2023-02-11T16:01:55.492Z,12.55
2023-02-11T16:06:58.346Z,9.98
2023-02-11T16:12:24.821Z,10.50
2023-02-11T16:17:30.528Z,9.68
2023-02-11T16:22:38.371Z,12.52
2023-02-11T16:27:43.454Z,12.38
2023-02-11T16:32:45.916Z,16.92
2023-02-11T16:37:48.399Z,14.18
2023-02-11T16:42:52.695Z,11.85
2023-02-11T16:47:55.213Z,11.45
2023-02-11T16:52:59.713Z,9.95
2023-02-11T16:58:02.213Z,13.70
2023-02-11T17:03:09.177Z,16.98
2023-02-11T17:08:12.164Z,7.97
2023-02-11T17:13:14.718Z,14.98
2023-02-11T17:18:17.161Z,14.30
2023-02-11T17:23:19.527Z,17.52
2023-02-11T17:28:22.482Z,11.25
2023-02-11T17:33:25.252Z,19.77
2023-02-11T17:38:27.830Z,12.27
2023-02-11T17:43:30.659Z,14.70
2023-02-11T17:48:33.110Z,13.98
2023-02-11T17:53:35.847Z,17.15
2023-02-11T17:58:38.629Z,17.60
2023-02-11T18:03:41.209Z,18.58
2023-02-11T18:08:46.258Z,20.52
2023-02-11T18:13:54.585Z,18.25
2023-02-11T18:18:58.606Z,19.42
2023-02-11T18:24:06.717Z,20.95
2023-02-11T18:29:09.749Z,21.05
2023-02-11T18:34:16.213Z,17.55
2023-02-11T18:39:20.320Z,17.73
2023-02-11T18:44:25.049Z,18.77
2023-02-11T18:49:27.752Z,16.88
2023-02-11T18:54:30.262Z,20.52
2023-02-11T18:59:32.683Z,15.32
2023-02-11T19:04:37.537Z,17.00
2023-02-11T19:09:39.996Z,19.90
2023-02-11T19:14:42.676Z,19.02
2023-02-11T19:19:45.114Z,15.93
2023-02-11T19:24:47.695Z,24.20
2023-02-11T19:29:50.224Z,13.68
2023-02-11T19:34:53.463Z,16.55
2023-02-11T19:39:55.969Z,11.88
2023-02-11T19:45:00.672Z,26.95
2023-02-11T19:50:04.615Z,25.23
2023-02-11T19:55:07.980Z,17.90
2023-02-11T20:00:11.498Z,20.27
2023-02-11T20:05:17.120Z,27.38
2023-02-11T20:10:19.629Z,12.70
2023-02-11T20:15:22.193Z,18.90
2023-02-11T20:20:24.660Z,22.58
2023-02-11T20:25:29.861Z,21.15
2023-02-11T20:30:35.379Z,26.98
2023-02-11T20:35:38.257Z,23.17
2023-02-11T20:40:40.708Z,18.30
2023-02-11T20:45:43.224Z,23.55
2023-02-11T20:50:48.278Z,18.25
2023-02-11T20:55:51.032Z,26.55
2023-02-11T21:00:53.709Z,27.20
2023-02-11T21:05:59.134Z,26.60
2023-02-11T21:11:02.179Z,29.20
2023-02-11T21:16:05.567Z,17.60
2023-02-11T21:21:11.465Z,30.02
2023-02-11T21:26:14.583Z,25.48
2023-02-11T21:31:25.660Z,11.93
2023-02-11T21:36:29.199Z,5.20
2023-02-11T21:41:31.698Z,19.95
2023-02-11T21:46:34.193Z,17.52
2023-02-11T21:51:36.637Z,16.58
2023-02-11T21:56:39.044Z,20.63
2023-02-11T22:01:41.815Z,22.83
2023-02-11T22:07:09.617Z,15.90
2023-02-11T22:12:12.166Z,19.63
2023-02-11T22:17:14.980Z,12.40
2023-02-11T22:22:19.941Z,19.17
2023-02-11T22:27:22.694Z,17.65
2023-02-11T22:32:25.240Z,15.20
2023-02-11T22:37:27.802Z,17.65
2023-02-11T22:42:30.569Z,16.05
2023-02-11T22:47:33.110Z,20.02
2023-02-11T22:52:36.639Z,11.77
2023-02-11T22:57:42.079Z,17.00
2023-02-11T23:02:44.846Z,22.85
2023-02-11T23:07:47.448Z,9.73
2023-02-11T23:12:50.022Z,9.93
2023-02-11T23:17:52.570Z,10.63
2023-02-11T23:22:55.929Z,9.10
2023-02-11T23:27:59.102Z,11.52
2023-02-11T23:33:01.641Z,18.45
2023-02-11T23:38:05.245Z,19.27
2023-02-11T23:43:07.817Z,14.73
2023-02-11T23:48:13.389Z,12.30
2023-02-11T23:53:17.736Z,17.33
2023-02-11T23:58:20.361Z,15.45
